Terminal Aerodrome Forecast
Issued by NWS

Home | Current Version | Previous Version | Text Only | Print | Product List | Glossary On
Versions: 1 2 3 4 5 6 7 8 9 10 11 12 13 14 15 16 17 18 19 20
965
FTUS43 KAPX 190538
TAFMBL
TAF
KMBL 190538Z 1906/2006 00000KT P6SM BKN050
     FM190800 00000KT P6SM BKN150
     FM191400 27006KT P6SM SCT060
     FM192200 24006KT P6SM FEW060=

USA.gov is the U.S. government's official web portal to all federal, state and local government web resources and services.